Manassas, Virginia
Current Conditions -  °F | °C
As of 11:45 AM on Thursday 23 Oct 2014 (Local Time) from KHEF Reporting Station
Clear Clear  
Wind Chill: 61°   Ceiling: Unl
Heat Index: 61°   Visibility: 10mi
Dew Point: 46°   Wind: 22mph
Humidity: 59%   Direction: 330°NNW
Pressure: 29.91"   Gusts: 30mph
Location:  38.75°N, 77.47°W
Report Text: KHEF 231545Z 33019G26KT 10SM SKC 16/08 A2991
Loading
Personal Weather Stations






























Interactive Weather Map
Tropical Storm Tracking
New forecast layout! Learn more

10-Day Weather Forecast

Advertisements
Track Severe Weather on mobile